Time;durP1;ratioP1;P1;durP2;ratioP2;P2;SDS_P1;SDS_P2;PMS_P1;PMS_P2;Temp;Humidity;BMP_temperature;BMP_pressure;BME280_temperature;BME280_humidity;BME280_pressure;Samples;Min_cycle;Max_cycle;Signal;HPM_P1;HPM_P2
2023/04/01 05:10:39;;;;;;;0.60;0.60;;;4.50;99.90;;;;;;5226345;23;20315;-65
2023/04/01 05:13:06;;;;;;;1.38;1.02;;;4.50;99.90;;;;;;4974247;28;20218;-65
2023/04/01 05:15:32;;;;;;;0.77;0.50;;;4.50;99.90;;;;;;4975469;28;20199;-66
2023/04/01 05:17:59;;;;;;;0.40;0.40;;;4.50;99.90;;;;;;4978468;28;20269;-64
2023/04/01 05:20:26;;;;;;;3.80;0.52;;;4.50;99.90;;;;;;4978273;28;20233;-64
2023/04/01 05:22:56;;;;;;;2.97;0.50;;;4.60;99.90;;;;;;4978822;28;20266;-65
2023/04/01 05:25:23;;;;;;;0.68;0.40;;;4.60;99.90;;;;;;4978121;28;20223;-65
2023/04/01 05:27:51;;;;;;;0.40;0.40;;;4.60;99.90;;;;;;4978141;28;20214;-65
2023/04/01 05:30:18;;;;;;;1.00;0.50;;;4.60;99.90;;;;;;4978123;28;20219;-66
2023/04/01 05:32:45;;;;;;;0.30;0.30;;;4.70;99.90;;;;;;4977826;28;20675;-66
2023/04/01 05:35:12;;;;;;;0.43;0.43;;;4.70;99.90;;;;;;4978050;28;20208;-66
2023/04/01 05:37:39;;;;;;;2.28;0.50;;;4.80;99.90;;;;;;4977777;28;20207;-66
2023/04/01 05:40:07;;;;;;;0.60;0.60;;;4.80;99.90;;;;;;4977949;28;20227;-66
2023/04/01 05:42:34;;;;;;;2.10;0.50;;;4.70;99.90;;;;;;4977592;28;20586;-67
2023/04/01 05:45:02;;;;;;;0.45;0.45;;;4.80;99.90;;;;;;4977830;28;20223;-67
2023/04/01 05:47:29;;;;;;;0.90;0.90;;;4.90;99.90;;;;;;4978048;28;20188;-66
2023/04/01 05:49:56;;;;;;;0.57;0.40;;;5.00;99.90;;;;;;4977782;28;20223;-66
2023/04/01 05:52:22;;;;;;;2.92;0.50;;;5.00;99.90;;;;;;4977848;28;20231;-66
2023/04/01 05:54:49;;;;;;;2.38;0.43;;;5.00;99.90;;;;;;4978317;28;20203;-66
2023/04/01 05:57:16;;;;;;;1.75;0.40;;;5.10;99.90;;;;;;4977712;28;20207;-66
2023/04/01 05:59:42;;;;;;;0.50;0.50;;;5.10;99.90;;;;;;4977442;28;20568;-66
2023/04/01 06:02:11;;;;;;;1.45;0.47;;;5.10;99.90;;;;;;4977751;28;20207;-66
2023/04/01 06:04:39;;;;;;;0.75;0.40;;;5.30;99.90;;;;;;4977328;28;20733;-66
2023/04/01 06:07:15;;;;;;;0.55;0.55;;;5.50;99.90;;;;;;4977188;28;20203;-67
2023/04/01 06:09:43;;;;;;;0.70;0.40;;;5.70;99.90;;;;;;4977220;28;20226;-67
2023/04/01 06:12:29;;;;;;;3.60;0.50;;;5.90;99.90;;;;;;4977248;28;20222;-67
2023/04/01 06:15:09;;;;;;;0.50;0.45;;;6.10;99.90;;;;;;4977536;28;20184;-66
2023/04/01 06:17:51;;;;;;;0.70;0.40;;;6.30;99.90;;;;;;4977366;28;20187;-66
2023/04/01 06:20:26;;;;;;;0.40;0.40;;;6.30;99.90;;;;;;4977220;28;20219;-66
2023/04/01 06:23:07;;;;;;;0.60;0.50;;;6.60;99.90;;;;;;4977295;28;20193;-66
2023/04/01 06:25:46;;;;;;;1.60;0.40;;;6.80;99.90;;;;;;4977165;28;20210;-66
2023/04/01 06:28:58;;;;;;;0.68;0.52;;;6.60;99.90;;;;;;4975972;28;20207;-66
2023/04/01 06:31:47;;;;;;;3.92;0.50;;;6.30;99.90;;;;;;4977142;28;20195;-66
2023/04/01 06:34:36;;;;;;;2.85;0.63;;;6.10;99.90;;;;;;4977090;28;20184;-66
2023/04/01 06:37:19;;;;;;;0.50;0.50;;;6.20;99.90;;;;;;4977022;28;20268;-65
2023/04/01 06:40:26;;;;;;;0.40;0.40;;;6.20;99.90;;;;;;4976967;28;20230;-65
2023/04/01 06:43:07;;;;;;;0.40;0.40;;;6.00;99.90;;;;;;4920246;28;20207;-65
2023/04/01 06:45:41;;;;;;;2.97;0.52;;;6.20;99.90;;;;;;4976919;28;20207;-66
2023/04/01 06:48:24;;;;;;;3.53;0.50;;;6.30;99.90;;;;;;4977338;28;20201;-66
2023/04/01 06:51:02;;;;;;;0.52;0.50;;;6.20;99.90;;;;;;4976398;28;20596;-66
2023/04/01 06:53:36;;;;;;;1.70;0.30;;;6.10;99.90;;;;;;4976426;28;20203;-66
2023/04/01 06:56:07;;;;;;;2.33;0.50;;;5.90;99.90;;;;;;4976645;28;20188;-66
2023/04/01 06:58:38;;;;;;;1.98;0.45;;;5.90;99.90;;;;;;4976610;28;20188;-66
2023/04/01 07:01:08;;;;;;;0.95;0.50;;;6.00;99.90;;;;;;4976511;28;20219;-65
2023/04/01 07:03:39;;;;;;;0.65;0.43;;;6.00;99.90;;;;;;4976574;28;20187;-65
2023/04/01 07:06:13;;;;;;;1.65;0.50;;;6.00;99.90;;;;;;4976578;28;20215;-65
2023/04/01 07:08:43;;;;;;;0.60;0.60;;;5.80;99.90;;;;;;4976606;28;20203;-65
2023/04/01 07:11:15;;;;;;;0.40;0.40;;;5.80;99.90;;;;;;4976482;28;20259;-65
2023/04/01 07:13:48;;;;;;;2.42;0.60;;;5.90;99.90;;;;;;4975973;28;20674;-65
2023/04/01 07:16:20;;;;;;;0.60;0.50;;;6.00;99.90;;;;;;4975980;28;20631;-65
2023/04/01 07:18:51;;;;;;;1.80;0.57;;;6.00;99.90;;;;;;4975907;28;20576;-65
2023/04/01 07:21:31;;;;;;;1.27;0.55;;;6.10;99.90;;;;;;4975919;28;20191;-65
2023/04/01 07:24:04;;;;;;;1.08;0.60;;;6.10;99.90;;;;;;4976206;28;20189;-65
2023/04/01 07:26:32;;;;;;;2.75;0.40;;;6.30;99.90;;;;;;4976025;28;20199;-65
2023/04/01 07:28:59;;;;;;;0.40;0.40;;;6.20;99.90;;;;;;4976125;28;20199;-66
2023/04/01 07:31:43;;;;;;;0.40;0.40;;;6.20;99.90;;;;;;4975806;28;20281;-66
2023/04/01 07:34:15;;;;;;;3.20;0.50;;;6.20;99.90;;;;;;4975575;28;20195;-67
2023/04/01 07:36:49;;;;;;;0.43;0.43;;;6.20;99.90;;;;;;4975895;28;20593;-66
2023/04/01 07:39:29;;;;;;;0.40;0.40;;;6.20;99.90;;;;;;4975455;28;20223;-66
2023/04/01 07:42:02;;;;;;;2.83;0.40;;;6.10;99.90;;;;;;4975859;28;20187;-66
2023/04/01 07:44:38;;;;;;;0.40;0.40;;;6.10;99.90;;;;;;4975698;28;20199;-66
2023/04/01 07:47:19;;;;;;;0.75;0.50;;;6.00;99.90;;;;;;4975731;28;20198;-66
2023/04/01 07:49:54;;;;;;;0.65;0.40;;;6.00;99.90;;;;;;4975228;28;20590;-66
2023/04/01 07:52:31;;;;;;;1.08;0.40;;;6.00;99.90;;;;;;4975566;28;20198;-66
2023/04/01 07:55:05;;;;;;;2.10;0.40;;;6.00;99.90;;;;;;4975296;28;20639;-66
2023/04/01 07:57:38;;;;;;;0.40;0.40;;;6.00;99.90;;;;;;4975497;28;20191;-66
2023/04/01 08:00:10;;;;;;;0.40;0.40;;;5.80;99.90;;;;;;4975397;28;20234;-66
2023/04/01 08:02:53;;;;;;;0.60;0.30;;;5.70;99.90;;;;;;4975428;28;20198;-66
2023/04/01 08:05:27;;;;;;;0.73;0.40;;;5.60;99.90;;;;;;4975251;28;20207;-66
2023/04/01 08:08:03;;;;;;;0.45;0.40;;;5.50;99.90;;;;;;4975336;28;20282;-67
2023/04/01 08:10:37;;;;;;;0.43;0.40;;;5.40;99.90;;;;;;4975377;28;20322;-66
2023/04/01 08:13:11;;;;;;;1.55;0.40;;;5.30;99.90;;;;;;4974827;28;20207;-66
2023/04/01 08:15:46;;;;;;;0.40;0.40;;;5.20;99.90;;;;;;4975113;28;20505;-67
2023/04/01 08:18:23;;;;;;;0.55;0.55;;;5.40;99.90;;;;;;4974868;28;20638;-66
2023/04/01 08:20:55;;;;;;;0.55;0.40;;;5.40;99.90;;;;;;4975036;28;20230;-66
2023/04/01 08:23:27;;;;;;;0.50;0.50;;;5.40;99.90;;;;;;4974932;28;20187;-66
2023/04/01 08:25:59;;;;;;;2.22;0.43;;;5.40;99.90;;;;;;4975003;28;20211;-66
2023/04/01 08:28:31;;;;;;;0.60;0.57;;;5.40;99.90;;;;;;4974713;28;20627;-66
2023/04/01 08:31:00;;;;;;;0.47;0.40;;;;;;;;;;4975150;28;20227;-65
2023/04/01 08:33:28;;;;;;;0.52;0.40;;;;;;;;;;4974705;28;20571;-65
2023/04/01 08:35:58;;;;;;;2.38;0.60;;;;;;;;;;4975065;28;20199;-66
2023/04/01 08:38:28;;;;;;;1.52;0.40;;;;;;;;;;4975639;28;20234;-67
2023/04/01 08:41:10;;;;;;;0.80;0.43;;;5.30;99.90;;;;;;4974495;28;20707;-67
2023/04/01 08:44:05;;;;;;;0.52;0.40;;;5.50;99.90;;;;;;4974847;28;20187;-67
2023/04/01 08:46:49;;;;;;;0.50;0.45;;;5.60;99.90;;;;;;4974768;28;20215;-67
2023/04/01 08:49:42;;;;;;;1.05;0.40;;;5.60;99.90;;;;;;4974867;28;20245;-67
2023/04/01 08:52:37;;;;;;;0.40;0.40;;;5.60;99.90;;;;;;4974080;28;20634;-68
2023/04/01 08:55:34;;;;;;;0.50;0.50;;;5.60;99.90;;;;;;4975534;28;20250;-66
2023/04/01 08:58:22;;;;;;;1.35;1.25;;;5.60;99.90;;;;;;4974803;28;20206;-66
2023/04/01 09:00:53;;;;;;;0.77;0.60;;;5.70;99.90;;;;;;4974840;28;20281;-67
2023/04/01 09:03:36;;;;;;;1.08;0.57;;;5.80;99.90;;;;;;4974833;28;20199;-66
2023/04/01 09:06:25;;;;;;;2.95;0.70;;;5.80;99.90;;;;;;4974573;28;20207;-66
2023/04/01 09:09:07;;;;;;;1.55;0.40;;;5.80;99.90;;;;;;4974610;28;20211;-66
2023/04/01 09:11:46;;;;;;;0.60;0.60;;;5.70;99.90;;;;;;4974203;28;20543;-67
2023/04/01 09:14:38;;;;;;;1.55;0.32;;;5.90;99.90;;;;;;4974590;28;20544;-66
2023/04/01 09:17:35;;;;;;;0.82;0.50;;;5.80;99.90;;;;;;4974609;28;20180;-66
2023/04/01 09:20:18;;;;;;;0.50;0.50;;;5.80;99.90;;;;;;4974594;28;20251;-66
2023/04/01 09:23:01;;;;;;;0.40;0.40;;;5.80;99.90;;;;;;4974598;28;20199;-67
2023/04/01 09:25:42;;;;;;;2.53;0.40;;;5.80;99.90;;;;;;4974505;28;20233;-66
2023/04/01 09:28:19;;;;;;;1.40;0.40;;;5.70;99.90;;;;;;4974517;28;20268;-66
2023/04/01 09:31:20;;;;;;;0.55;0.50;;;5.70;99.90;;;;;;4974614;28;20234;-66
2023/04/01 09:34:22;;;;;;;0.40;0.40;;;5.70;99.90;;;;;;4974398;28;20191;-66
2023/04/01 09:37:00;;;;;;;1.55;0.50;;;5.80;99.90;;;;;;4975026;28;20274;-66
2023/04/01 09:39:36;;;;;;;0.40;0.40;;;5.90;99.90;;;;;;4974471;28;20242;-66
2023/04/01 09:42:42;;;;;;;0.40;0.40;;;5.90;99.90;;;;;;4977566;28;20191;-65
2023/04/01 09:45:24;;;;;;;1.08;0.40;;;6.00;99.90;;;;;;4975317;28;20211;-64
2023/04/01 09:48:03;;;;;;;0.40;0.40;;;6.30;99.90;;;;;;4974398;28;20563;-65
2023/04/01 09:50:37;;;;;;;1.38;0.30;;;6.40;99.90;;;;;;4974313;28;20242;-64
2023/04/01 09:53:17;;;;;;;1.27;1.23;;;6.40;99.90;;;;;;4974229;28;20219;-64
2023/04/01 09:56:19;;;;;;;0.30;0.30;;;6.40;99.90;;;;;;4974840;28;20206;-64
2023/04/01 09:59:21;;;;;;;0.77;0.50;;;6.40;99.90;;;;;;4974849;28;20246;-63
2023/04/01 10:02:09;;;;;;;0.90;0.90;;;6.40;99.90;;;;;;4958555;28;20211;-63
2023/04/01 10:05:06;;;;;;;0.52;0.52;;;6.50;99.90;;;;;;4977298;28;20204;-64
2023/04/01 10:08:20;;;;;;;0.80;0.80;;;6.60;99.90;;;;;;4937068;28;20352;-66
2023/04/01 10:11:14;;;;;;;0.50;0.50;;;6.50;99.90;;;;;;4977116;28;20637;-66
2023/04/01 10:14:15;;;;;;;0.40;0.40;;;6.50;99.90;;;;;;4977067;28;20211;-65
2023/04/01 10:17:12;;;;;;;1.60;0.60;;;6.60;99.90;;;;;;4961243;28;20207;-64
2023/04/01 10:20:22;;;;;;;0.50;0.50;;;6.40;99.90;;;;;;4935038;28;20227;-65
2023/04/01 10:23:15;;;;;;;0.70;0.65;;;6.70;99.90;;;;;;4977255;28;20191;-65
2023/04/01 10:26:17;;;;;;;1.50;0.60;;;6.90;99.90;;;;;;4977059;28;20211;-65
2023/04/01 10:29:16;;;;;;;0.43;0.43;;;6.90;99.90;;;;;;4970325;28;20207;-66
2023/04/01 10:32:27;;;;;;;0.40;0.40;;;7.00;99.90;;;;;;4977102;28;20191;-66
2023/04/01 10:35:37;;;;;;;1.75;0.90;;;6.90;99.90;;;;;;4879697;29;20210;-66
2023/04/01 10:38:36;;;;;;;0.57;0.57;;;6.80;99.90;;;;;;4931278;28;20207;-66
2023/04/01 10:41:45;;;;;;;0.70;0.70;;;6.70;99.90;;;;;;4977482;28;20569;-66
2023/04/01 10:44:53;;;;;;;1.02;1.02;;;6.70;99.90;;;;;;4879532;29;20218;-64
2023/04/01 10:47:51;;;;;;;1.15;1.15;;;6.60;99.90;;;;;;4976539;28;20223;-63
2023/04/01 10:50:39;;;;;;;0.73;0.73;;;6.80;99.90;;;;;;4977060;28;20230;-63
2023/04/01 10:53:35;;;;;;;0.73;0.73;;;6.80;99.90;;;;;;4976988;28;20188;-65
2023/04/01 10:56:37;;;;;;;0.60;0.60;;;6.80;99.90;;;;;;4977003;28;20534;-65
2023/04/01 10:59:46;;;;;;;0.50;0.50;;;6.70;99.90;;;;;;4976717;28;20206;-65
2023/04/01 11:02:58;;;;;;;0.40;0.40;;;6.70;99.90;;;;;;4976927;28;20206;-66
2023/04/01 11:05:50;;;;;;;0.70;0.70;;;6.80;99.90;;;;;;4976382;28;20667;-65
2023/04/01 11:09:01;;;;;;;0.88;0.60;;;6.70;99.90;;;;;;4976374;28;20199;-66
2023/04/01 11:12:00;;;;;;;0.80;0.50;;;6.60;99.90;;;;;;4976330;28;20192;-66
2023/04/01 11:15:10;;;;;;;1.33;0.50;;;6.60;99.90;;;;;;4975709;28;20190;-66
2023/04/01 11:18:11;;;;;;;1.80;0.50;;;6.80;99.90;;;;;;4976312;28;20203;-66
2023/04/01 11:21:15;;;;;;;1.17;0.45;;;6.90;99.90;;;;;;4976246;28;20230;-66
2023/04/01 11:23:54;;;;;;;1.38;0.60;;;7.00;99.90;;;;;;4976212;28;20191;-66
2023/04/01 11:26:33;;;;;;;0.57;0.40;;;6.80;99.90;;;;;;4976110;28;20210;-66
2023/04/01 11:29:28;;;;;;;0.50;0.50;;;6.90;99.90;;;;;;4975886;28;20246;-66
2023/04/01 11:32:05;;;;;;;0.50;0.50;;;6.90;99.90;;;;;;4975694;28;20667;-66
2023/04/01 11:35:04;;;;;;;0.50;0.50;;;6.90;99.90;;;;;;4975771;28;20202;-66
2023/04/01 11:37:42;;;;;;;0.60;0.60;;;7.00;99.90;;;;;;4975897;28;20274;-66
2023/04/01 11:40:23;;;;;;;0.47;0.47;;;7.20;99.90;;;;;;4975285;28;20711;-66
2023/04/01 11:42:58;;;;;;;0.43;0.40;;;7.50;99.90;;;;;;4975276;28;20234;-66
2023/04/01 11:45:36;;;;;;;0.40;0.40;;;7.60;99.90;;;;;;4975618;28;20194;-66
2023/04/01 11:48:33;;;;;;;1.88;0.52;;;7.70;99.90;;;;;;4976022;28;20191;-66
2023/04/01 11:51:13;;;;;;;0.77;0.50;;;7.80;99.90;;;;;;4975679;28;20228;-66
2023/04/01 11:53:50;;;;;;;0.50;0.50;;;8.00;99.90;;;;;;4975636;28;20187;-66
2023/04/01 11:56:36;;;;;;;1.17;0.60;;;8.30;99.90;;;;;;4975421;28;20207;-64
2023/04/01 11:59:35;;;;;;;0.30;0.30;;;8.40;99.90;;;;;;4974942;28;20651;-64
2023/04/01 12:02:08;;;;;;;0.52;0.40;;;8.40;99.90;;;;;;4975766;28;20242;-66
2023/04/01 12:04:48;;;;;;;0.50;0.50;;;8.20;99.90;;;;;;4975202;28;20199;-66
2023/04/01 12:07:23;;;;;;;0.45;0.45;;;8.10;99.90;;;;;;4975250;28;20281;-65
2023/04/01 12:10:03;;;;;;;0.40;0.40;;;7.90;99.90;;;;;;4974930;28;20264;-66
2023/04/01 12:12:36;;;;;;;0.32;0.32;;;7.90;99.90;;;;;;4975168;28;20211;-65
2023/04/01 12:15:18;;;;;;;0.30;0.30;;;7.90;99.90;;;;;;4975525;28;20199;-65
2023/04/01 12:17:51;;;;;;;0.57;0.40;;;7.90;99.90;;;;;;4975310;28;20188;-66
2023/04/01 12:20:40;;;;;;;0.30;0.30;;;7.90;99.90;;;;;;4975038;28;20227;-65
2023/04/01 12:23:21;;;;;;;0.73;0.73;;;7.80;99.90;;;;;;4975359;28;20562;-66
2023/04/01 12:26:11;;;;;;;0.50;0.50;;;7.70;99.90;;;;;;4974110;28;20234;-66
2023/04/01 12:28:47;;;;;;;0.50;0.45;;;7.70;99.90;;;;;;4975043;28;20278;-66
2023/04/01 12:31:32;;;;;;;0.35;0.30;;;7.70;99.90;;;;;;4974562;28;20702;-66
2023/04/01 12:34:42;;;;;;;0.52;0.35;;;7.70;99.90;;;;;;4975368;28;20551;-67
2023/04/01 12:37:16;;;;;;;0.30;0.30;;;7.70;99.90;;;;;;4975195;28;20191;-67
2023/04/01 12:39:58;;;;;;;0.30;0.30;;;7.70;99.90;;;;;;4975062;28;20226;-67
2023/04/01 12:42:44;;;;;;;0.30;0.30;;;7.70;99.90;;;;;;4975034;28;20188;-67
2023/04/01 12:45:41;;;;;;;0.35;0.35;;;7.60;99.90;;;;;;4974916;28;20188;-67
2023/04/01 12:48:32;;;;;;;0.30;0.30;;;7.70;99.90;;;;;;4974828;28;20191;-67
2023/04/01 12:51:20;;;;;;;0.40;0.40;;;7.70;99.90;;;;;;4961618;28;20219;-66
2023/04/01 12:54:05;;;;;;;0.30;0.30;;;7.80;99.90;;;;;;4975058;28;20190;-63
2023/04/01 12:56:45;;;;;;;0.30;0.30;;;7.70;99.90;;;;;;4974797;28;20210;-66
2023/04/01 12:59:40;;;;;;;0.32;0.32;;;7.80;99.90;;;;;;4974685;28;20226;-67
2023/04/01 13:02:14;;;;;;;0.30;0.30;;;8.00;99.90;;;;;;4974541;28;20203;-67
2023/04/01 13:04:59;;;;;;;0.40;0.40;;;8.00;99.90;;;;;;4974576;28;20189;-67
2023/04/01 13:08:05;;;;;;;0.30;0.30;;;8.10;99.90;;;;;;4974511;28;20287;-67
2023/04/01 13:10:43;;;;;;;0.30;0.30;;;8.20;99.90;;;;;;4974516;28;20227;-66
2023/04/01 13:13:40;;;;;;;0.30;0.30;;;8.30;99.90;;;;;;4974106;28;20214;-66
2023/04/01 13:16:15;;;;;;;0.82;0.30;;;8.40;99.90;;;;;;4930321;28;20298;-66
2023/04/01 13:18:55;;;;;;;0.30;0.30;;;8.50;99.90;;;;;;4974397;28;20187;-66
2023/04/01 13:21:27;;;;;;;0.30;0.30;;;;;;;;;;4974425;28;20194;-66
2023/04/01 13:23:59;;;;;;;0.30;0.30;;;;;;;;;;4975036;28;20199;-66
2023/04/01 13:26:29;;;;;;;0.30;0.30;;;;;;;;;;4974510;28;20210;-66
2023/04/01 13:29:00;;;;;;;0.30;0.30;;;;;;;;;;4975311;28;20196;-67
2023/04/01 13:31:32;;;;;;;0.40;0.40;;;;;;;;;;4974619;28;20219;-66
2023/04/01 13:34:06;;;;;;;0.30;0.30;;;;;;;;;;4974184;28;20666;-66
2023/04/01 13:36:38;;;;;;;1.20;0.40;;;;;;;;;;4974737;28;20210;-66
2023/04/01 13:39:14;;;;;;;0.30;0.30;;;;;;;;;;4978060;28;20192;-66
2023/04/01 13:41:47;;;;;;;0.30;0.30;;;;;;;;;;4978077;28;20187;-66
2023/04/01 13:44:16;;;;;;;0.45;0.30;;;;;;;;;;4978775;28;20209;-66
2023/04/01 13:47:03;;;;;;;0.60;0.30;;;;;;;;;;4977701;28;20227;-66
2023/04/01 13:49:42;;;;;;;0.22;0.22;;;;;;;;;;4937746;28;20707;-66
2023/04/01 13:52:27;;;;;;;0.28;0.28;;;;;;;;;;4977999;28;20183;-66
2023/04/01 13:55:05;;;;;;;0.30;0.30;;;;;;;;;;4962288;28;20571;-66
2023/04/01 13:57:45;;;;;;;0.30;0.30;;;;;;;;;;4977701;28;20191;-66
2023/04/01 14:00:24;;;;;;;0.30;0.30;;;;;;;;;;4977787;28;20243;-66
2023/04/01 14:02:57;;;;;;;0.30;0.30;;;;;;;;;;4977801;28;20197;-66
2023/04/01 14:05:37;;;;;;;0.30;0.30;;;;;;;;;;4977643;28;20188;-66
2023/04/01 14:08:11;;;;;;;0.35;0.35;;;;;;;;;;4977199;28;20703;-66
2023/04/01 14:10:42;;;;;;;1.45;0.40;;;;;;;;;;4977458;28;20231;-66
2023/04/01 14:13:14;;;;;;;0.32;0.32;;;;;;;;;;4977405;28;20222;-66
2023/04/01 14:15:44;;;;;;;0.35;0.35;;;;;;;;;;4977079;28;20578;-66
2023/04/01 14:18:16;;;;;;;0.50;0.50;;;;;;;;;;4977416;28;20204;-66
2023/04/01 14:20:51;;;;;;;0.40;0.40;;;;;;;;;;4977490;28;20230;-66
2023/04/01 14:23:37;;;;;;;0.57;0.57;;;8.70;99.90;;;;;;4977280;28;20278;-66
2023/04/01 14:26:16;;;;;;;2.28;0.90;;;10.00;99.90;;;;;;4977223;28;20188;-66
2023/04/01 14:28:54;;;;;;;0.60;0.60;;;10.00;99.90;;;;;;4977311;28;20187;-66
2023/04/01 14:31:40;;;;;;;1.08;1.02;;;9.90;99.90;;;;;;4977167;28;20281;-66
2023/04/01 14:34:23;;;;;;;3.45;3.25;;;10.00;99.90;;;;;;4977174;28;20195;-66
2023/04/01 14:37:16;;;;;;;2.70;2.55;;;9.90;99.90;;;;;;4977199;28;20205;-65
2023/04/01 14:40:25;;;;;;;1.15;1.13;;;9.90;99.90;;;;;;4976732;28;20762;-65
2023/04/01 14:43:15;;;;;;;1.33;1.30;;;9.90;99.90;;;;;;4976718;28;20191;-66
2023/04/01 14:46:00;;;;;;;0.88;0.88;;;9.80;99.90;;;;;;4972901;28;20234;-66
2023/04/01 14:48:33;;;;;;;0.82;0.50;;;9.80;99.90;;;;;;4975799;28;20282;-66
2023/04/01 14:51:10;;;;;;;0.30;0.30;;;9.70;99.90;;;;;;4976551;28;20710;-66
2023/04/01 14:53:45;;;;;;;0.30;0.30;;;9.70;99.90;;;;;;4976519;28;20673;-66
2023/04/01 14:56:12;;;;;;;0.30;0.30;;;9.70;99.90;;;;;;4976920;28;20588;-66
2023/04/01 14:58:45;;;;;;;0.30;0.30;;;9.70;99.90;;;;;;4977257;28;20199;-66
2023/04/01 15:01:31;;;;;;;0.50;0.50;;;9.70;99.90;;;;;;4976640;28;20231;-66
2023/04/01 15:04:13;;;;;;;0.40;0.40;;;9.80;99.90;;;;;;4976622;28;20194;-66
2023/04/01 15:07:12;;;;;;;0.63;0.50;;;9.80;99.90;;;;;;4976424;28;20234;-66
2023/04/01 15:09:51;;;;;;;0.30;0.30;;;9.80;99.90;;;;;;4976500;28;20231;-66
2023/04/01 15:12:28;;;;;;;0.88;0.52;;;9.80;99.90;;;;;;4976174;28;20210;-64
2023/04/01 15:15:17;;;;;;;0.52;0.50;;;9.80;99.90;;;;;;4976507;28;20192;-65
2023/04/01 15:17:59;;;;;;;0.40;0.40;;;9.70;99.90;;;;;;4976310;28;20180;-66
2023/04/01 15:20:42;;;;;;;0.77;0.50;;;9.70;99.90;;;;;;4976214;28;20234;-67
2023/04/01 15:23:22;;;;;;;0.50;0.50;;;9.70;99.90;;;;;;4976199;28;20278;-66
2023/04/01 15:26:13;;;;;;;1.15;0.60;;;9.70;99.90;;;;;;4976186;28;20195;-66
2023/04/01 15:28:47;;;;;;;0.50;0.50;;;9.70;99.90;;;;;;4976056;28;20207;-66
2023/04/01 15:31:20;;;;;;;1.08;0.52;;;9.70;99.90;;;;;;4976021;28;20220;-67
2023/04/01 15:33:55;;;;;;;0.57;0.57;;;9.70;99.90;;;;;;4976215;28;20652;-66
2023/04/01 15:36:34;;;;;;;0.43;0.40;;;9.80;99.90;;;;;;4976194;28;20198;-66
2023/04/01 15:39:11;;;;;;;0.40;0.40;;;9.90;99.90;;;;;;4975910;28;20191;-66
2023/04/01 15:41:50;;;;;;;1.42;0.50;;;9.90;99.90;;;;;;4976054;28;20187;-66
2023/04/01 15:44:45;;;;;;;1.83;0.40;;;9.70;99.90;;;;;;4975955;28;20283;-67
2023/04/01 15:47:39;;;;;;;2.03;0.57;;;9.60;99.90;;;;;;4976019;28;20208;-66
2023/04/01 15:50:27;;;;;;;0.60;0.60;;;9.30;99.90;;;;;;4975848;28;20223;-66
2023/04/01 15:53:09;;;;;;;2.20;0.60;;;8.80;99.90;;;;;;4959477;28;20207;-66
2023/04/01 15:55:44;;;;;;;2.35;0.82;;;8.50;99.90;;;;;;4975728;28;20184;-66
2023/04/01 15:58:39;;;;;;;0.40;0.40;;;8.20;99.90;;;;;;4975659;28;20183;-66
2023/04/01 16:01:20;;;;;;;0.30;0.30;;;8.00;99.90;;;;;;4975058;28;20593;-66
2023/04/01 16:03:55;;;;;;;1.60;0.80;;;7.90;99.90;;;;;;4975613;28;20250;-67
2023/04/01 16:06:46;;;;;;;4.53;1.15;;;7.80;99.90;;;;;;4975472;28;20188;-66
2023/04/01 16:09:45;;;;;;;1.38;0.93;;;7.80;99.90;;;;;;4975527;28;20242;-66
2023/04/01 16:12:18;;;;;;;0.60;0.60;;;7.70;99.90;;;;;;4956548;28;20215;-66
2023/04/01 16:14:59;;;;;;;0.70;0.70;;;7.70;99.90;;;;;;4975343;28;20202;-66
2023/04/01 16:17:37;;;;;;;0.50;0.50;;;7.70;99.90;;;;;;4975064;28;20644;-66
2023/04/01 16:20:18;;;;;;;0.40;0.40;;;7.60;99.90;;;;;;4975248;28;20227;-66
2023/04/01 16:22:53;;;;;;;0.47;0.47;;;7.60;99.90;;;;;;4975199;28;20199;-66
2023/04/01 16:25:29;;;;;;;0.43;0.43;;;7.50;99.90;;;;;;4975245;28;20195;-66
2023/04/01 16:28:08;;;;;;;0.85;0.50;;;7.50;99.90;;;;;;4975025;28;20215;-66
2023/04/01 16:30:41;;;;;;;0.73;0.73;;;7.50;99.90;;;;;;4975024;28;20234;-66
2023/04/01 16:33:16;;;;;;;2.72;1.30;;;7.40;99.90;;;;;;4975116;28;20187;-66
2023/04/01 16:35:48;;;;;;;0.85;0.75;;;7.40;99.90;;;;;;4975110;28;20187;-66
2023/04/01 16:38:23;;;;;;;0.65;0.65;;;7.30;99.90;;;;;;4974918;28;20191;-66
2023/04/01 16:41:01;;;;;;;0.57;0.55;;;7.30;99.90;;;;;;4974772;28;20231;-66
2023/04/01 16:43:36;;;;;;;0.57;0.57;;;7.30;99.90;;;;;;4974938;28;20191;-66
2023/04/01 16:46:36;;;;;;;0.80;0.80;;;7.30;99.90;;;;;;4975106;28;20184;-66
2023/04/01 16:49:18;;;;;;;1.85;0.90;;;7.30;99.90;;;;;;4877767;29;20214;-64
2023/04/01 16:51:48;;;;;;;0.75;0.75;;;7.30;99.90;;;;;;4964379;28;20203;-64
2023/04/01 16:54:26;;;;;;;0.80;0.80;;;7.40;99.90;;;;;;4975221;28;20207;-67
2023/04/01 16:56:56;;;;;;;0.60;0.60;;;7.40;99.90;;;;;;4974931;28;20191;-67
2023/04/01 16:59:28;;;;;;;0.90;0.90;;;7.30;99.90;;;;;;4974539;28;20222;-67
2023/04/01 17:02:03;;;;;;;0.68;0.50;;;7.30;99.90;;;;;;4974941;28;20187;-67
2023/04/01 17:04:35;;;;;;;0.93;0.93;;;7.20;99.90;;;;;;4974880;28;20187;-67
2023/04/01 17:07:12;;;;;;;0.60;0.60;;;7.20;99.90;;;;;;4974756;28;20187;-67
2023/04/01 17:09:58;;;;;;;0.90;0.90;;;7.20;99.90;;;;;;4974774;28;20223;-67
2023/04/01 17:12:29;;;;;;;0.60;0.60;;;7.20;99.90;;;;;;4976222;28;20675;-67
2023/04/01 17:15:04;;;;;;;0.73;0.73;;;7.10;99.90;;;;;;4978401;28;20192;-67
2023/04/01 17:17:40;;;;;;;0.80;0.80;;;7.10;99.90;;;;;;4978727;28;20242;-67
2023/04/01 17:20:31;;;;;;;0.60;0.60;;;7.10;99.90;;;;;;4978520;28;20223;-66
2023/04/01 17:23:09;;;;;;;0.90;0.90;;;7.10;99.90;;;;;;4978519;28;20203;-66
2023/04/01 17:25:58;;;;;;;2.47;0.93;;;7.10;99.90;;;;;;4978631;28;20186;-66
2023/04/01 17:28:36;;;;;;;0.70;0.70;;;7.10;99.90;;;;;;4978086;28;20624;-67
2023/04/01 17:31:10;;;;;;;0.90;0.90;;;7.10;99.90;;;;;;4978528;28;20309;-67
2023/04/01 17:33:56;;;;;;;0.82;0.82;;;7.00;99.90;;;;;;4978408;28;20187;-66
2023/04/01 17:36:44;;;;;;;0.65;0.65;;;7.00;99.90;;;;;;4978437;28;20553;-66
2023/04/01 17:39:38;;;;;;;0.63;0.63;;;6.90;99.90;;;;;;4978203;28;20238;-67
2023/04/01 17:42:09;;;;;;;1.10;0.98;;;6.80;99.90;;;;;;4978116;28;20530;-67
2023/04/01 17:44:48;;;;;;;1.48;1.08;;;6.70;99.90;;;;;;4979187;28;20195;-67
2023/04/01 17:47:51;;;;;;;1.92;1.83;;;6.60;99.90;;;;;;4978523;28;20272;-67
2023/04/01 17:50:24;;;;;;;1.75;1.65;;;6.50;99.90;;;;;;4977809;28;20632;-67
2023/04/01 17:53:02;;;;;;;1.45;1.45;;;6.40;99.90;;;;;;4978210;28;20198;-66
2023/04/01 17:55:46;;;;;;;1.30;1.30;;;6.40;99.90;;;;;;4977791;28;20530;-66
2023/04/01 17:58:19;;;;;;;1.02;1.02;;;6.40;99.90;;;;;;4977987;28;20188;-66
2023/04/01 18:01:07;;;;;;;0.90;0.90;;;6.40;99.90;;;;;;4977938;28;20231;-66
2023/04/01 18:04:06;;;;;;;0.73;0.73;;;6.40;99.90;;;;;;4977958;28;20198;-67
2023/04/01 18:06:42;;;;;;;0.60;0.60;;;6.30;99.90;;;;;;4956508;28;20230;-68
2023/04/01 18:09:24;;;;;;;0.60;0.60;;;6.30;99.90;;;;;;4977594;28;20218;-67
2023/04/01 18:12:02;;;;;;;0.70;0.70;;;6.20;99.90;;;;;;4977638;28;20309;-67
2023/04/01 18:14:53;;;;;;;0.80;0.80;;;6.10;99.90;;;;;;4977662;28;20238;-67
2023/04/01 18:17:25;;;;;;;0.65;0.65;;;6.10;99.90;;;;;;4977268;28;20638;-67
2023/04/01 18:20:18;;;;;;;0.70;0.70;;;6.00;99.90;;;;;;4977295;28;20737;-67
2023/04/01 18:22:50;;;;;;;0.75;0.75;;;6.00;99.90;;;;;;4977543;28;20188;-67
2023/04/01 18:25:24;;;;;;;0.60;0.60;;;5.90;99.90;;;;;;4977705;28;20188;-67
2023/04/01 18:27:55;;;;;;;0.43;0.43;;;5.80;99.90;;;;;;4977630;28;20213;-68
2023/04/01 18:30:28;;;;;;;0.50;0.50;;;5.80;99.90;;;;;;4977365;28;20223;-66
2023/04/01 18:33:02;;;;;;;0.45;0.45;;;5.70;99.90;;;;;;4977320;28;20271;-67
2023/04/01 18:35:45;;;;;;;0.55;0.55;;;5.60;99.90;;;;;;4977266;28;20191;-67
2023/04/01 18:38:16;;;;;;;0.50;0.50;;;5.60;99.90;;;;;;4977160;28;20311;-67
2023/04/01 18:40:48;;;;;;;0.45;0.45;;;5.60;99.90;;;;;;4977076;28;20219;-68
2023/04/01 18:43:23;;;;;;;0.50;0.50;;;5.50;99.90;;;;;;4976899;28;20551;-68
2023/04/01 18:45:55;;;;;;;0.60;0.60;;;5.50;99.90;;;;;;4977207;28;20287;-67
2023/04/01 18:48:41;;;;;;;0.65;0.52;;;5.40;99.90;;;;;;4977040;28;20214;-67
2023/04/01 18:51:15;;;;;;;0.60;0.60;;;5.40;99.90;;;;;;4976632;28;20286;-67
2023/04/01 18:53:49;;;;;;;1.50;0.80;;;5.40;99.90;;;;;;4977021;28;20207;-67
2023/04/01 18:56:26;;;;;;;1.55;1.45;;;5.30;99.90;;;;;;4976933;28;20188;-67
2023/04/01 18:59:00;;;;;;;1.20;1.20;;;5.20;99.90;;;;;;4976604;28;20635;-67
2023/04/01 19:01:35;;;;;;;1.10;1.10;;;5.20;99.90;;;;;;4977617;28;20219;-67
2023/04/01 19:04:13;;;;;;;1.45;1.45;;;5.20;99.90;;;;;;4976768;28;20257;-68
2023/04/01 19:06:47;;;;;;;1.55;1.55;;;5.10;99.90;;;;;;4976909;28;20198;-68
2023/04/01 19:09:21;;;;;;;1.60;1.52;;;5.10;99.90;;;;;;4976406;28;20310;-67
2023/04/01 19:12:01;;;;;;;1.65;1.55;;;5.00;99.90;;;;;;4976375;28;20206;-68
2023/04/01 19:14:40;;;;;;;1.35;1.35;;;4.90;99.90;;;;;;4976189;28;20671;-68
2023/04/01 19:17:16;;;;;;;1.60;1.60;;;4.90;99.90;;;;;;4976224;28;20639;-68
2023/04/01 19:19:52;;;;;;;1.85;1.80;;;4.90;99.90;;;;;;4976243;28;20226;-67
2023/04/01 19:22:33;;;;;;;1.60;1.60;;;4.80;99.90;;;;;;4976322;28;20203;-67
2023/04/01 19:25:27;;;;;;;1.63;1.52;;;4.70;99.90;;;;;;4976455;28;20187;-67
2023/04/01 19:28:01;;;;;;;1.52;1.42;;;4.60;99.90;;;;;;4977196;28;20191;-68